Terminal Aerodrome Forecast
Issued by NWS Midland/Odessa, TX

Home | Current Version | Previous Version | Text Only | Print | Product List | Glossary On
Versions: 1 2 3 4 5 6 7 8 9 10 11 12 13 14 15 16
302
FTUS44 KMAF 232321
TAFMAF
TAF
KMAF 232321Z 2400/2424 17008KT P6SM FEW070 BKN120
     FM240900 15004KT P6SM BKN200=

USA.gov is the U.S. government's official web portal to all federal, state and local government web resources and services.